Time;durP1;ratioP1;P1;durP2;ratioP2;P2;SDS_P1;SDS_P2;PMS_P1;PMS_P2;Temp;Humidity;BMP_temperature;BMP_pressure;BME280_temperature;BME280_humidity;BME280_pressure;Samples;Min_cycle;Max_cycle;Signal;HPM_P1;HPM_P2
2021/11/26 00:00:54;;;;;;;4.32;1.30;;;14.80;88.80;;;;;;4173776;28;20036;-75
2021/11/26 00:03:16;;;;;;;3.50;1.45;;;14.80;88.90;;;;;;4161372;28;20107;-75
2021/11/26 00:05:38;;;;;;;2.63;1.25;;;14.80;88.70;;;;;;4158679;28;20493;-75
2021/11/26 00:08:01;;;;;;;4.63;1.40;;;14.80;90.00;;;;;;4159401;28;20041;-74
2021/11/26 00:10:24;;;;;;;4.03;1.30;;;14.90;90.30;;;;;;4158961;28;20144;-74
2021/11/26 00:12:52;;;;;;;2.42;0.90;;;14.90;90.20;;;;;;4158896;28;20493;-75
2021/11/26 00:15:20;;;;;;;5.97;1.42;;;15.00;90.10;;;;;;4157996;28;20042;-74
2021/11/26 00:17:50;;;;;;;2.58;1.40;;;15.10;90.00;;;;;;4158144;28;20045;-75
2021/11/26 00:20:12;;;;;;;4.30;1.42;;;15.10;90.00;;;;;;4144088;28;20049;-75
2021/11/26 00:22:34;;;;;;;5.45;1.60;;;15.10;89.70;;;;;;4141476;28;20472;-76
2021/11/26 00:24:57;;;;;;;5.05;1.60;;;15.20;89.60;;;;;;4159355;28;20052;-75
2021/11/26 00:27:21;;;;;;;7.97;1.90;;;15.20;89.50;;;;;;4144474;28;20046;-75
2021/11/26 00:29:43;;;;;;;6.63;1.55;;;15.20;89.40;;;;;;4150354;28;20042;-75
2021/11/26 00:32:06;;;;;;;4.97;1.50;;;15.20;89.40;;;;;;4142856;28;20050;-75
2021/11/26 00:34:28;;;;;;;2.88;1.35;;;15.20;89.50;;;;;;4142946;28;20444;-75
2021/11/26 00:36:50;;;;;;;4.88;1.80;;;15.10;89.20;;;;;;4142667;28;20068;-77
2021/11/26 00:39:12;;;;;;;4.00;1.52;;;15.10;89.20;;;;;;4142925;28;20045;-76
2021/11/26 00:41:35;;;;;;;3.63;1.75;;;15.10;89.30;;;;;;4140837;28;20092;-77
2021/11/26 00:43:58;;;;;;;3.33;1.60;;;15.10;89.40;;;;;;4141004;28;20077;-75
2021/11/26 00:46:21;;;;;;;6.57;1.48;;;15.10;89.80;;;;;;4142447;28;20409;-76
2021/11/26 00:48:43;;;;;;;2.83;1.23;;;15.10;89.90;;;;;;4145509;28;20150;-76
2021/11/26 00:51:05;;;;;;;8.10;1.98;;;15.20;89.80;;;;;;4158617;28;20056;-76
2021/11/26 00:53:27;;;;;;;4.20;1.30;;;15.20;89.80;;;;;;4157227;28;20048;-76
2021/11/26 00:55:50;;;;;;;4.22;1.20;;;15.20;89.50;;;;;;4175268;28;20139;-75
2021/11/26 00:58:12;;;;;;;5.03;1.08;;;15.20;89.50;;;;;;4161124;28;20452;-76
2021/11/26 01:00:36;;;;;;;2.42;1.35;;;15.20;89.40;;;;;;4174849;28;20512;-75
2021/11/26 01:02:58;;;;;;;6.28;1.63;;;15.20;89.40;;;;;;4161499;28;20104;-75
2021/11/26 01:05:21;;;;;;;4.30;1.65;;;15.20;89.40;;;;;;4157381;28;20053;-75
2021/11/26 01:07:45;;;;;;;4.95;2.40;;;15.20;89.40;;;;;;4158805;28;20062;-75
2021/11/26 01:10:09;;;;;;;5.22;1.63;;;15.10;89.40;;;;;;4158772;28;20045;-75
2021/11/26 01:12:31;;;;;;;3.58;1.52;;;15.10;89.60;;;;;;4145617;28;20050;-75
2021/11/26 01:14:53;;;;;;;5.55;1.90;;;15.20;90.00;;;;;;4141967;28;20132;-75
2021/11/26 01:17:16;;;;;;;5.63;2.03;;;15.20;89.90;;;;;;4141978;28;20072;-74
2021/11/26 01:19:39;;;;;;;3.13;1.10;;;15.20;89.80;;;;;;4142228;28;20052;-76
2021/11/26 01:22:01;;;;;;;2.13;1.00;;;15.30;89.70;;;;;;4142429;28;20048;-76
2021/11/26 01:24:23;;;;;;;6.18;1.38;;;15.30;89.70;;;;;;4142166;28;20077;-76
2021/11/26 01:26:45;;;;;;;4.60;1.40;;;15.40;89.40;;;;;;4140759;28;20058;-75
2021/11/26 01:29:07;;;;;;;4.18;2.17;;;15.40;89.00;;;;;;4144687;28;20471;-75
2021/11/26 01:31:29;;;;;;;5.10;1.90;;;15.50;88.80;;;;;;4142048;28;20054;-75
2021/11/26 01:33:54;;;;;;;4.72;1.83;;;15.50;88.70;;;;;;4158392;28;20049;-77
2021/11/26 01:36:16;;;;;;;3.38;1.80;;;15.50;88.60;;;;;;4145362;28;20053;-79
2021/11/26 01:38:39;;;;;;;4.15;1.60;;;15.50;88.70;;;;;;4169835;28;20049;-77
2021/11/26 01:41:01;;;;;;;3.33;1.40;;;15.50;88.60;;;;;;4161397;28;20103;-79
2021/11/26 01:43:23;;;;;;;2.75;1.33;;;15.60;88.50;;;;;;4154841;28;20447;-78
2021/11/26 01:45:48;;;;;;;3.35;1.60;;;15.50;88.30;;;;;;4151960;28;20037;-76
2021/11/26 01:48:10;;;;;;;4.22;1.85;;;15.60;88.50;;;;;;4163770;28;20432;-76
2021/11/26 01:50:34;;;;;;;1.92;1.60;;;15.50;88.60;;;;;;4159708;28;20534;-76
2021/11/26 01:52:56;;;;;;;2.75;1.30;;;15.60;88.40;;;;;;4157597;28;20493;-75
2021/11/26 01:55:21;;;;;;;2.90;1.17;;;15.60;88.30;;;;;;4158279;28;20086;-75
2021/11/26 01:57:45;;;;;;;3.35;1.70;;;15.70;88.10;;;;;;4152521;28;20038;-75
2021/11/26 02:00:11;;;;;;;3.83;1.30;;;15.70;87.90;;;;;;4142019;28;20050;-75
2021/11/26 02:02:34;;;;;;;3.03;1.20;;;15.70;87.90;;;;;;4146104;28;20053;-74
2021/11/26 02:04:56;;;;;;;3.70;1.63;;;15.70;87.90;;;;;;4157950;28;20064;-73
2021/11/26 02:07:19;;;;;;;4.50;1.23;;;15.70;87.80;;;;;;4158597;28;20073;-74
2021/11/26 02:09:42;;;;;;;4.88;1.30;;;15.70;87.60;;;;;;4161704;28;20077;-74
2021/11/26 02:12:05;;;;;;;1.90;1.10;;;15.70;87.70;;;;;;4145561;28;20049;-74
2021/11/26 02:14:27;;;;;;;3.15;1.05;;;15.70;87.60;;;;;;4144432;28;20100;-74
2021/11/26 02:16:51;;;;;;;4.20;1.20;;;15.70;87.70;;;;;;4152710;28;20049;-75
2021/11/26 02:19:14;;;;;;;2.00;1.17;;;15.70;87.60;;;;;;4162605;28;20041;-76
2021/11/26 02:21:38;;;;;;;2.45;0.95;;;15.70;87.70;;;;;;4159892;28;20045;-75
2021/11/26 02:23:59;;;;;;;3.60;1.25;;;15.70;87.80;;;;;;4162651;28;20045;-75
2021/11/26 02:26:22;;;;;;;3.63;1.00;;;15.70;87.80;;;;;;4159644;28;20053;-75
2021/11/26 02:28:43;;;;;;;4.53;1.48;;;15.70;87.90;;;;;;4147325;28;20141;-75
2021/11/26 02:31:06;;;;;;;1.27;0.70;;;15.70;87.80;;;;;;4145212;28;20046;-75
2021/11/26 02:33:28;;;;;;;3.17;1.17;;;15.70;87.60;;;;;;4153379;28;20177;-75
2021/11/26 02:35:52;;;;;;;3.25;0.95;;;15.70;87.60;;;;;;4153633;28;20084;-77
2021/11/26 02:38:16;;;;;;;2.33;1.33;;;15.70;87.70;;;;;;4143551;28;20594;-76
2021/11/26 02:40:40;;;;;;;2.05;1.20;;;15.60;87.60;;;;;;4142474;28;20046;-76
2021/11/26 02:43:02;;;;;;;2.55;1.20;;;15.70;88.20;;;;;;4149296;28;20144;-77
2021/11/26 02:45:25;;;;;;;2.78;0.90;;;15.80;88.00;;;;;;4160619;28;20045;-77
2021/11/26 02:47:49;;;;;;;4.57;1.02;;;15.80;87.70;;;;;;4177148;28;20147;-76
2021/11/26 02:50:12;;;;;;;2.30;1.00;;;15.80;87.20;;;;;;4177700;28;20496;-76
2021/11/26 02:52:35;;;;;;;4.80;1.35;;;15.80;87.10;;;;;;4173079;28;20518;-76
2021/11/26 02:54:59;;;;;;;2.90;1.00;;;15.80;87.10;;;;;;4145929;28;20100;-77
2021/11/26 02:57:21;;;;;;;2.00;0.90;;;15.90;87.10;;;;;;4143101;28;20069;-76
2021/11/26 02:59:43;;;;;;;1.42;0.88;;;15.80;87.10;;;;;;4144395;28;20140;-76
2021/11/26 03:02:06;;;;;;;2.55;1.05;;;15.80;87.20;;;;;;4143913;28;20374;-77
2021/11/26 03:04:28;;;;;;;2.78;0.75;;;15.80;87.10;;;;;;4143392;28;20130;-76
2021/11/26 03:07:00;;;;;;;2.25;0.95;;;15.80;86.90;;;;;;4144316;28;20112;-76
2021/11/26 03:09:22;;;;;;;2.50;0.98;;;15.80;86.50;;;;;;4143753;28;20053;-76
2021/11/26 03:11:45;;;;;;;2.25;0.80;;;15.80;87.00;;;;;;4145519;28;20056;-76
2021/11/26 03:14:08;;;;;;;3.70;1.13;;;15.70;87.00;;;;;;4160488;28;20571;-76
2021/11/26 03:16:30;;;;;;;0.93;0.60;;;15.70;87.30;;;;;;4146706;28;20045;-77
2021/11/26 03:18:52;;;;;;;2.40;0.80;;;15.70;87.20;;;;;;4143229;28;20048;-77
2021/11/26 03:21:14;;;;;;;3.03;0.60;;;15.70;87.20;;;;;;4152998;28;20068;-77
2021/11/26 03:23:37;;;;;;;3.85;1.08;;;15.70;87.30;;;;;;4160603;28;20126;-76
2021/11/26 03:25:59;;;;;;;2.70;0.93;;;15.70;87.30;;;;;;4158927;28;20432;-76
2021/11/26 03:28:22;;;;;;;2.25;0.60;;;15.70;87.60;;;;;;4158422;28;20050;-77
2021/11/26 03:30:46;;;;;;;5.05;0.75;;;15.70;87.70;;;;;;4155974;28;20108;-76
2021/11/26 03:33:09;;;;;;;2.17;0.70;;;15.70;87.50;;;;;;4143826;28;20132;-77
2021/11/26 03:35:31;;;;;;;3.17;0.80;;;15.80;87.10;;;;;;4143658;28;20108;-76
2021/11/26 03:37:53;;;;;;;2.47;1.00;;;15.90;86.90;;;;;;4154912;28;20408;-77
2021/11/26 03:40:17;;;;;;;2.95;0.60;;;15.90;86.70;;;;;;4159895;28;20524;-77
2021/11/26 03:42:39;;;;;;;0.88;0.60;;;15.80;86.70;;;;;;4143784;28;20049;-77
2021/11/26 03:45:05;;;;;;;1.55;0.80;;;15.80;87.00;;;;;;4142023;28;20124;-76
2021/11/26 03:47:27;;;;;;;3.75;0.90;;;15.80;86.90;;;;;;4145217;28;20137;-75
2021/11/26 03:49:50;;;;;;;1.50;0.80;;;15.80;86.90;;;;;;4143746;28;20485;-75
2021/11/26 03:52:12;;;;;;;1.15;0.65;;;15.80;86.90;;;;;;4159267;28;20060;-75
2021/11/26 03:54:35;;;;;;;4.57;0.85;;;15.80;86.90;;;;;;4159587;28;20045;-75
2021/11/26 03:56:56;;;;;;;2.55;0.80;;;15.80;86.90;;;;;;4159985;28;20069;-75
2021/11/26 03:59:19;;;;;;;4.82;0.93;;;15.70;87.00;;;;;;4158757;28;20485;-76
2021/11/26 04:01:42;;;;;;;3.65;0.50;;;15.70;87.10;;;;;;4152974;28;20049;-76
2021/11/26 04:04:05;;;;;;;2.60;0.70;;;15.60;87.20;;;;;;4173434;28;20041;-75
2021/11/26 04:06:27;;;;;;;3.15;0.60;;;15.60;87.60;;;;;;4149828;28;20162;-75
2021/11/26 04:08:49;;;;;;;3.00;0.75;;;15.60;87.90;;;;;;4141984;28;20464;-75
2021/11/26 04:11:11;;;;;;;1.38;0.50;;;15.70;87.70;;;;;;4149580;28;20049;-75
2021/11/26 04:13:33;;;;;;;3.22;0.95;;;15.70;87.50;;;;;;4159528;28;20411;-75
2021/11/26 04:16:01;;;;;;;3.95;0.80;;;15.70;87.10;;;;;;4159258;28;20049;-75
2021/11/26 04:18:26;;;;;;;3.30;0.65;;;15.80;87.40;;;;;;4159380;28;20037;-75
2021/11/26 04:20:48;;;;;;;1.13;0.70;;;15.90;87.40;;;;;;4154686;28;20070;-74
2021/11/26 04:23:11;;;;;;;1.98;1.00;;;15.90;86.80;;;;;;4143186;28;20050;-75
2021/11/26 04:25:33;;;;;;;4.07;0.57;;;16.00;86.40;;;;;;4143110;28;20485;-75
2021/11/26 04:27:55;;;;;;;2.45;0.73;;;16.10;86.00;;;;;;4142532;28;20547;-76
2021/11/26 04:30:20;;;;;;;1.90;0.80;;;16.10;85.50;;;;;;4158930;28;20048;-76
2021/11/26 04:32:43;;;;;;;2.13;0.70;;;16.10;85.40;;;;;;4143464;28;20047;-76
2021/11/26 04:35:09;;;;;;;1.30;0.65;;;16.10;85.30;;;;;;4143144;28;20508;-76
2021/11/26 04:37:31;;;;;;;1.73;0.73;;;16.10;85.40;;;;;;4142257;28;20100;-77
2021/11/26 04:39:53;;;;;;;1.95;0.85;;;16.00;85.60;;;;;;4158655;28;20053;-77
2021/11/26 04:42:16;;;;;;;1.38;0.60;;;15.90;85.90;;;;;;4141292;28;20145;-77
2021/11/26 04:44:38;;;;;;;4.68;1.25;;;15.90;86.30;;;;;;4145659;28;20042;-76
2021/11/26 04:47:00;;;;;;;2.50;0.80;;;15.90;86.50;;;;;;4140150;28;20037;-75
2021/11/26 04:49:22;;;;;;;3.42;0.55;;;15.90;86.30;;;;;;4141578;28;20048;-74
2021/11/26 04:51:46;;;;;;;3.42;0.50;;;15.90;86.30;;;;;;4141541;28;20049;-75
2021/11/26 04:54:08;;;;;;;2.33;0.85;;;15.90;86.00;;;;;;4142318;28;20128;-72
2021/11/26 04:56:31;;;;;;;1.17;0.82;;;15.90;85.90;;;;;;4142239;28;20050;-76
2021/11/26 04:58:53;;;;;;;2.08;0.45;;;15.90;86.20;;;;;;4140744;28;20135;-77
2021/11/26 05:01:15;;;;;;;2.97;0.65;;;15.90;86.00;;;;;;4158293;28;20496;-74
2021/11/26 05:03:38;;;;;;;1.35;0.65;;;15.80;86.00;;;;;;4145318;28;20172;-73
2021/11/26 05:06:00;;;;;;;2.10;0.55;;;15.80;86.10;;;;;;4142019;28;20049;-74
2021/11/26 05:08:23;;;;;;;1.70;0.60;;;15.80;86.10;;;;;;4155947;28;20054;-74
2021/11/26 05:10:51;;;;;;;1.63;0.77;;;15.80;86.60;;;;;;4144343;28;20041;-74
2021/11/26 05:13:13;;;;;;;0.82;0.40;;;15.90;86.80;;;;;;4157778;28;20049;-75
2021/11/26 05:15:35;;;;;;;1.15;0.45;;;16.00;86.10;;;;;;4140860;28;20057;-75
2021/11/26 05:18:00;;;;;;;1.95;0.50;;;16.10;85.50;;;;;;4158541;28;20516;-74
2021/11/26 05:20:23;;;;;;;1.00;0.50;;;16.20;85.10;;;;;;4158745;28;20144;-74
2021/11/26 05:22:45;;;;;;;2.50;0.50;;;16.20;84.70;;;;;;4158768;28;20049;-74
2021/11/26 05:25:10;;;;;;;3.40;0.52;;;16.20;84.50;;;;;;4156279;28;20049;-73
2021/11/26 05:27:32;;;;;;;1.20;0.70;;;16.10;84.50;;;;;;4158546;28;20045;-73
2021/11/26 05:29:54;;;;;;;4.03;0.50;;;16.10;84.70;;;;;;4144380;28;20477;-74
2021/11/26 05:32:16;;;;;;;2.92;0.50;;;16.10;84.90;;;;;;4155864;28;20045;-74
2021/11/26 05:34:38;;;;;;;1.95;0.60;;;15.90;85.00;;;;;;4174699;28;20051;-74
2021/11/26 05:37:00;;;;;;;2.67;0.70;;;16.00;85.40;;;;;;4160887;28;20045;-74
2021/11/26 05:39:23;;;;;;;1.17;0.50;;;15.90;85.60;;;;;;4158264;28;20120;-74
2021/11/26 05:41:47;;;;;;;6.43;0.88;;;15.90;85.60;;;;;;4142160;28;20056;-75
2021/11/26 05:44:09;;;;;;;3.85;1.08;;;15.90;85.40;;;;;;4142070;28;20068;-75
2021/11/26 05:46:31;;;;;;;5.97;1.08;;;15.90;85.50;;;;;;4156992;28;20045;-75
2021/11/26 05:48:53;;;;;;;1.25;0.57;;;15.90;85.20;;;;;;4145888;28;20052;-74
2021/11/26 05:51:15;;;;;;;3.03;0.82;;;16.00;85.20;;;;;;4169038;28;20073;-75
2021/11/26 05:53:38;;;;;;;0.93;0.40;;;16.00;85.00;;;;;;4160985;28;20052;-74
2021/11/26 05:56:00;;;;;;;3.45;0.70;;;16.00;85.00;;;;;;4157791;28;20042;-75
2021/11/26 05:58:24;;;;;;;1.23;0.50;;;15.90;85.40;;;;;;4158259;28;20046;-76
2021/11/26 06:00:46;;;;;;;5.00;0.52;;;15.90;85.40;;;;;;4144693;28;20493;-75
2021/11/26 06:03:10;;;;;;;1.25;0.63;;;16.00;85.30;;;;;;4141179;28;20065;-75
2021/11/26 06:05:33;;;;;;;1.98;0.55;;;16.00;85.00;;;;;;4143076;28;20420;-75
2021/11/26 06:07:55;;;;;;;1.38;0.75;;;16.00;84.90;;;;;;4141391;28;20413;-75
2021/11/26 06:10:18;;;;;;;2.65;0.80;;;16.00;84.90;;;;;;4156594;28;20053;-75
2021/11/26 06:12:41;;;;;;;3.58;0.60;;;16.00;84.90;;;;;;4152500;28;20092;-76
2021/11/26 06:15:07;;;;;;;3.30;0.70;;;16.00;84.90;;;;;;4157872;28;20037;-76
2021/11/26 06:17:29;;;;;;;0.65;0.57;;;16.00;84.80;;;;;;4158482;28;20053;-78
2021/11/26 06:19:51;;;;;;;1.30;0.60;;;16.00;85.00;;;;;;4158290;28;20052;-77
2021/11/26 06:22:14;;;;;;;1.17;0.55;;;16.00;84.80;;;;;;4157237;28;20057;-78
2021/11/26 06:24:36;;;;;;;2.03;0.38;;;16.00;84.90;;;;;;4165325;28;20108;-77
2021/11/26 06:26:58;;;;;;;0.65;0.35;;;16.00;85.10;;;;;;4156823;28;20052;-77
2021/11/26 06:29:21;;;;;;;0.98;0.47;;;16.00;85.00;;;;;;4158085;28;20108;-77
2021/11/26 06:31:44;;;;;;;1.67;0.70;;;15.90;85.00;;;;;;4157860;28;20050;-75
2021/11/26 06:34:06;;;;;;;1.48;0.60;;;15.90;85.10;;;;;;4156616;28;20073;-76
2021/11/26 06:36:31;;;;;;;2.85;0.90;;;15.90;85.20;;;;;;4164382;28;20041;-75
2021/11/26 06:38:53;;;;;;;3.22;1.20;;;15.80;85.10;;;;;;4174286;28;20106;-75
2021/11/26 06:41:15;;;;;;;2.60;0.75;;;15.80;85.10;;;;;;4170878;28;20065;-77
2021/11/26 06:43:37;;;;;;;1.98;0.68;;;15.80;85.10;;;;;;4160518;28;20385;-75
2021/11/26 06:45:59;;;;;;;1.67;0.60;;;15.80;84.90;;;;;;4174043;28;20449;-76
2021/11/26 06:48:25;;;;;;;1.02;0.57;;;15.80;85.00;;;;;;4169403;28;20053;-76
2021/11/26 06:50:48;;;;;;;1.25;0.60;;;15.90;85.20;;;;;;4149676;28;20411;-76
2021/11/26 06:53:10;;;;;;;2.05;0.60;;;16.00;85.00;;;;;;4160876;28;20445;-75
2021/11/26 06:55:32;;;;;;;2.40;0.70;;;16.10;84.50;;;;;;4164339;28;20049;-75
2021/11/26 06:57:54;;;;;;;1.30;0.52;;;16.20;83.80;;;;;;4160949;28;20037;-75
2021/11/26 07:00:19;;;;;;;2.83;0.82;;;16.20;83.40;;;;;;4146404;28;20050;-75
2021/11/26 07:02:40;;;;;;;2.00;0.80;;;16.30;82.90;;;;;;4144658;28;20513;-75
2021/11/26 07:05:05;;;;;;;1.33;0.65;;;16.30;82.80;;;;;;4144142;28;20070;-74
2021/11/26 07:07:27;;;;;;;1.88;1.13;;;16.20;82.50;;;;;;4144004;28;20045;-74
2021/11/26 07:09:49;;;;;;;1.30;1.00;;;16.20;82.60;;;;;;4144186;28;20136;-74
2021/11/26 07:12:12;;;;;;;2.97;1.35;;;16.10;82.90;;;;;;4161188;28;20059;-73
2021/11/26 07:14:35;;;;;;;2.70;1.30;;;16.10;83.00;;;;;;4158191;28;20531;-75
2021/11/26 07:16:57;;;;;;;2.55;1.27;;;16.00;84.00;;;;;;4161160;28;20108;-75
2021/11/26 07:19:19;;;;;;;3.25;1.55;;;16.00;83.20;;;;;;4157429;28;20059;-74
2021/11/26 07:21:44;;;;;;;2.53;1.52;;;16.00;83.10;;;;;;4174888;28;20052;-75
2021/11/26 07:24:06;;;;;;;2.53;1.65;;;16.00;83.00;;;;;;4162201;28;20049;-75
2021/11/26 07:26:28;;;;;;;2.20;1.58;;;15.90;83.00;;;;;;4146325;28;20069;-75
2021/11/26 07:28:51;;;;;;;2.17;1.50;;;15.90;83.10;;;;;;4143788;28;20180;-75
2021/11/26 07:31:13;;;;;;;2.67;1.63;;;15.90;83.00;;;;;;4152475;28;21066;-75
2021/11/26 07:33:35;;;;;;;4.18;1.90;;;16.00;82.70;;;;;;4151778;28;20042;-71
2021/11/26 07:35:57;;;;;;;2.00;1.60;;;16.00;82.30;;;;;;4152740;28;20515;-72
2021/11/26 07:38:21;;;;;;;7.38;1.90;;;16.10;82.50;;;;;;4141491;28;20434;-71
2021/11/26 07:40:43;;;;;;;5.10;2.08;;;16.10;82.40;;;;;;4156500;28;20052;-71
2021/11/26 07:43:05;;;;;;;7.13;1.90;;;16.20;82.00;;;;;;4146069;28;20471;-71
2021/11/26 07:45:27;;;;;;;3.60;1.88;;;16.40;81.40;;;;;;4141736;28;20137;-72
2021/11/26 07:47:50;;;;;;;2.47;1.50;;;16.50;81.10;;;;;;4147470;28;20056;-71
2021/11/26 07:50:14;;;;;;;1.95;1.70;;;16.60;80.30;;;;;;4143920;28;20077;-71
2021/11/26 07:52:38;;;;;;;4.38;1.73;;;16.70;79.60;;;;;;4145218;28;20396;-71
2021/11/26 07:55:04;;;;;;;2.85;1.60;;;16.90;79.00;;;;;;4145036;28;20057;-71
2021/11/26 07:57:27;;;;;;;2.55;1.60;;;17.00;78.30;;;;;;4142689;28;20132;-72
2021/11/26 07:59:49;;;;;;;2.05;1.40;;;17.10;77.70;;;;;;4145066;28;20080;-72
2021/11/26 08:02:11;;;;;;;3.13;2.17;;;17.20;76.80;;;;;;4141717;28;20164;-72
2021/11/26 08:04:34;;;;;;;2.92;1.42;;;17.30;76.30;;;;;;4146146;28;20053;-71
2021/11/26 08:06:56;;;;;;;2.00;1.45;;;17.40;75.70;;;;;;4155322;28;20045;-71
2021/11/26 08:09:19;;;;;;;2.63;1.45;;;17.50;75.40;;;;;;4155837;28;20107;-71
2021/11/26 08:11:42;;;;;;;2.75;1.58;;;17.50;75.30;;;;;;4152560;28;20065;-71
2021/11/26 08:14:05;;;;;;;5.40;1.85;;;17.40;75.20;;;;;;4141903;28;20111;-71
2021/11/26 08:16:27;;;;;;;4.78;1.77;;;17.40;75.50;;;;;;4141255;28;20139;-71
2021/11/26 08:18:49;;;;;;;4.78;1.88;;;17.30;75.50;;;;;;4142725;28;20050;-70
2021/11/26 08:21:11;;;;;;;6.15;1.77;;;17.30;75.50;;;;;;4156126;28;20519;-71
2021/11/26 08:23:33;;;;;;;2.45;1.50;;;17.20;76.00;;;;;;4166576;28;20519;-72
2021/11/26 08:25:57;;;;;;;7.80;2.47;;;17.10;76.50;;;;;;4173507;28;20403;-74
2021/11/26 08:28:21;;;;;;;4.28;1.25;;;17.00;76.90;;;;;;4143552;28;20058;-72
2021/11/26 08:30:43;;;;;;;4.80;1.75;;;17.00;76.50;;;;;;4142766;28;20489;-73
2021/11/26 08:33:07;;;;;;;5.28;1.85;;;17.10;76.20;;;;;;4156354;28;20056;-73
2021/11/26 08:35:29;;;;;;;3.40;1.48;;;17.10;76.00;;;;;;4162445;28;20535;-70
2021/11/26 08:37:52;;;;;;;3.10;1.42;;;17.10;75.80;;;;;;4149704;28;20053;-70
2021/11/26 08:40:15;;;;;;;7.20;1.75;;;17.10;75.60;;;;;;4143360;28;20053;-70
2021/11/26 08:42:38;;;;;;;8.50;1.55;;;17.20;75.20;;;;;;4151587;28;20136;-70
2021/11/26 08:45:03;;;;;;;6.13;1.63;;;17.20;74.70;;;;;;4156605;28;20053;-70
2021/11/26 08:47:26;;;;;;;2.45;1.67;;;17.30;74.60;;;;;;4144859;28;20481;-70
2021/11/26 08:49:49;;;;;;;3.65;1.50;;;17.30;74.40;;;;;;4141966;28;20135;-69
2021/11/26 08:52:13;;;;;;;3.95;1.40;;;17.20;74.40;;;;;;4141234;28;20476;-69
2021/11/26 08:54:36;;;;;;;3.65;1.58;;;17.10;74.60;;;;;;4143588;28;20060;-69
2021/11/26 08:56:57;;;;;;;6.75;1.85;;;17.00;75.00;;;;;;4140516;28;20034;-70
2021/11/26 08:59:20;;;;;;;5.32;1.48;;;17.00;75.30;;;;;;4140676;28;20496;-69
2021/11/26 09:01:44;;;;;;;5.82;1.40;;;16.90;75.50;;;;;;4150203;28;20504;-70
2021/11/26 09:04:06;;;;;;;3.97;1.48;;;16.90;74.60;;;;;;4153510;28;20037;-69
2021/11/26 09:06:31;;;;;;;2.42;1.45;;;16.90;72.10;;;;;;4148736;28;20041;-69
2021/11/26 09:08:53;;;;;;;6.05;1.95;;;16.90;71.60;;;;;;4144154;28;20053;-69
2021/11/26 09:11:16;;;;;;;7.68;2.08;;;16.90;71.00;;;;;;4145579;28;20049;-69
2021/11/26 09:13:38;;;;;;;10.68;3.10;;;16.80;71.20;;;;;;4154745;28;20052;-69
2021/11/26 09:16:00;;;;;;;6.53;1.77;;;16.80;71.10;;;;;;4156261;28;20049;-68
2021/11/26 09:18:24;;;;;;;5.70;2.08;;;16.80;70.30;;;;;;4152303;28;20420;-69
2021/11/26 09:20:50;;;;;;;4.93;1.88;;;16.80;70.30;;;;;;4155762;28;20057;-70
2021/11/26 09:23:12;;;;;;;6.10;1.65;;;16.80;70.00;;;;;;4138603;28;21041;-70
2021/11/26 09:25:35;;;;;;;5.57;2.08;;;16.80;70.20;;;;;;4144908;28;20049;-70
2021/11/26 09:27:57;;;;;;;10.30;2.17;;;16.80;70.50;;;;;;4148720;28;20450;-69
2021/11/26 09:30:23;;;;;;;9.18;3.28;;;16.80;69.60;;;;;;4140165;28;20501;-69
2021/11/26 09:32:45;;;;;;;7.68;2.05;;;16.90;68.60;;;;;;4146831;28;20502;-69
2021/11/26 09:35:10;;;;;;;2.38;1.30;;;17.00;67.80;;;;;;4142801;28;20045;-68
2021/11/26 09:37:32;;;;;;;6.25;1.88;;;17.00;67.20;;;;;;4142840;28;20057;-70
2021/11/26 09:39:54;;;;;;;6.95;2.28;;;16.90;66.50;;;;;;4169315;28;20059;-69
2021/11/26 09:42:16;;;;;;;5.25;1.90;;;16.90;65.90;;;;;;4158219;28;20487;-72
2021/11/26 09:44:39;;;;;;;3.05;1.58;;;16.80;65.90;;;;;;4151914;28;20077;-72
2021/11/26 09:47:02;;;;;;;6.88;2.30;;;16.80;65.70;;;;;;4141242;28;20053;-73
2021/11/26 09:49:25;;;;;;;2.97;1.10;;;16.70;65.70;;;;;;4155250;28;20408;-73
2021/11/26 09:51:49;;;;;;;6.72;2.42;;;16.70;65.60;;;;;;4140022;28;20100;-72
2021/11/26 09:54:11;;;;;;;4.32;1.42;;;16.60;65.20;;;;;;4141662;28;20048;-72
2021/11/26 09:56:34;;;;;;;5.65;1.90;;;16.60;65.10;;;;;;4146382;28;20049;-73
2021/11/26 09:58:58;;;;;;;3.30;1.45;;;16.60;65.00;;;;;;4155323;28;21057;-72
2021/11/26 10:01:20;;;;;;;7.90;2.15;;;16.50;64.70;;;;;;4147568;28;20065;-71
2021/11/26 10:03:43;;;;;;;6.25;2.17;;;16.50;64.30;;;;;;4147678;28;20512;-70
2021/11/26 10:06:06;;;;;;;6.82;1.70;;;16.40;63.90;;;;;;4140076;28;20208;-71
2021/11/26 10:08:29;;;;;;;5.95;1.90;;;16.40;63.60;;;;;;4139077;28;20120;-72
2021/11/26 10:10:59;;;;;;;5.03;1.77;;;16.30;63.80;;;;;;4138495;28;20052;-72
2021/11/26 10:13:21;;;;;;;9.13;1.52;;;16.30;63.90;;;;;;4148140;28;20050;-72
2021/11/26 10:15:45;;;;;;;5.28;1.30;;;16.20;64.10;;;;;;4148479;28;20328;-72
2021/11/26 10:18:13;;;;;;;5.88;1.70;;;16.20;64.10;;;;;;4140137;28;20132;-73
2021/11/26 10:20:35;;;;;;;4.53;1.50;;;16.30;63.80;;;;;;4152113;28;20116;-73
2021/11/26 10:22:58;;;;;;;6.65;1.33;;;16.40;63.20;;;;;;4167879;28;20057;-74
2021/11/26 10:25:22;;;;;;;6.30;1.60;;;16.40;62.80;;;;;;4169466;28;20044;-73
2021/11/26 10:27:47;;;;;;;7.38;2.10;;;16.40;62.40;;;;;;4169829;28;20114;-73
2021/11/26 10:30:17;;;;;;;4.57;1.95;;;16.40;62.20;;;;;;4158826;28;20451;-73
2021/11/26 10:32:40;;;;;;;3.30;1.00;;;16.40;61.90;;;;;;4170649;28;20107;-73
2021/11/26 10:35:06;;;;;;;6.90;1.98;;;16.40;62.00;;;;;;4161767;28;20137;-72
2021/11/26 10:37:28;;;;;;;9.65;2.55;;;16.30;62.00;;;;;;4163588;28;20107;-73
2021/11/26 10:39:50;;;;;;;6.53;1.88;;;16.20;62.10;;;;;;4164539;28;20041;-73
2021/11/26 10:42:26;;;;;;;6.97;1.90;;;16.20;62.00;;;;;;4145528;28;20058;-73
2021/11/26 10:44:56;;;;;;;5.00;1.80;;;16.30;61.80;;;;;;4157598;28;20080;-73
2021/11/26 10:47:22;;;;;;;5.15;1.55;;;16.30;61.50;;;;;;4145345;28;20061;-73
2021/11/26 10:49:49;;;;;;;7.40;1.83;;;16.30;61.30;;;;;;4143995;28;20085;-72
2021/11/26 10:57:43;;;;;;;3.97;1.30;;;16.20;61.80;;;;;;4142330;28;20050;-73
2021/11/26 11:00:10;;;;;;;1.75;0.70;;;16.10;62.00;;;;;;4143971;28;20484;-72
2021/11/26 11:02:36;;;;;;;4.82;1.52;;;16.10;61.80;;;;;;4150092;28;20478;-72
2021/11/26 11:04:58;;;;;;;5.97;1.70;;;16.10;61.60;;;;;;4158360;28;20049;-73
2021/11/26 11:07:20;;;;;;;8.88;1.55;;;16.20;61.40;;;;;;4142952;28;20049;-73
2021/11/26 11:09:45;;;;;;;5.25;2.03;;;16.20;60.90;;;;;;4158809;28;20156;-72
2021/11/26 11:12:07;;;;;;;7.15;1.90;;;16.20;60.30;;;;;;4154491;28;20061;-74
2021/11/26 11:14:32;;;;;;;4.47;1.50;;;16.30;60.30;;;;;;4145264;28;20050;-74
2021/11/26 11:16:56;;;;;;;6.47;1.52;;;16.30;59.90;;;;;;4152760;28;20045;-74
2021/11/26 11:19:18;;;;;;;3.75;1.35;;;16.30;59.70;;;;;;4153368;28;20049;-74
2021/11/26 11:21:41;;;;;;;1.42;0.90;;;16.20;59.60;;;;;;4141348;28;20057;-73
2021/11/26 11:24:03;;;;;;;2.42;1.27;;;16.20;59.60;;;;;;4147812;28;20499;-74
2021/11/26 11:26:26;;;;;;;3.72;1.73;;;16.10;59.60;;;;;;4147413;28;20056;-74
2021/11/26 11:28:48;;;;;;;5.07;1.40;;;16.00;59.70;;;;;;4160154;28;20132;-74
2021/11/26 11:31:11;;;;;;;5.57;1.83;;;15.90;59.80;;;;;;4145528;28;20065;-74
2021/11/26 11:33:35;;;;;;;6.95;2.13;;;15.80;61.00;;;;;;4157765;28;20694;-74
2021/11/26 11:36:01;;;;;;;9.27;2.58;;;15.80;60.40;;;;;;4166434;28;20061;-73
2021/11/26 11:38:23;;;;;;;3.15;1.63;;;15.80;60.20;;;;;;4158462;28;20079;-69
2021/11/26 11:40:50;;;;;;;3.28;1.55;;;15.80;60.20;;;;;;4145283;28;20054;-69
2021/11/26 11:43:15;;;;;;;6.03;2.08;;;15.90;60.10;;;;;;4150637;28;20053;-69
2021/11/26 11:45:38;;;;;;;5.85;1.48;;;15.90;59.90;;;;;;4145846;28;20132;-69
2021/11/26 11:48:05;;;;;;;7.10;1.90;;;15.90;59.90;;;;;;4143751;28;20045;-69
2021/11/26 11:50:31;;;;;;;8.32;2.42;;;15.90;59.90;;;;;;4163098;28;20054;-69
2021/11/26 11:52:58;;;;;;;3.25;1.17;;;15.80;60.00;;;;;;4157699;28;20049;-68
2021/11/26 11:55:27;;;;;;;3.45;1.95;;;15.80;60.10;;;;;;4151008;28;20041;-69
2021/11/26 11:57:50;;;;;;;5.65;1.50;;;15.80;60.30;;;;;;4157087;28;20048;-68
2021/11/26 12:00:16;;;;;;;6.35;2.05;;;15.80;60.30;;;;;;4149412;28;20119;-69
2021/11/26 12:02:39;;;;;;;8.23;1.70;;;15.90;59.90;;;;;;4146631;28;20481;-69
2021/11/26 12:05:02;;;;;;;5.40;2.05;;;15.90;59.90;;;;;;4145921;28;20081;-69
2021/11/26 12:07:27;;;;;;;5.53;1.45;;;16.00;60.00;;;;;;4145110;28;20592;-69
2021/11/26 12:09:49;;;;;;;3.67;1.83;;;16.00;59.90;;;;;;4149225;28;20129;-69
2021/11/26 12:12:15;;;;;;;9.48;2.72;;;16.10;59.70;;;;;;4142377;28;20135;-68
2021/11/26 12:14:49;;;;;;;3.55;2.58;;;16.10;59.50;;;;;;4142617;28;20050;-68
2021/11/26 12:17:14;;;;;;;6.40;1.90;;;16.10;59.50;;;;;;4148319;28;20048;-69
2021/11/26 12:19:36;;;;;;;5.95;2.92;;;16.10;59.80;;;;;;4161465;28;20551;-69
2021/11/26 12:22:00;;;;;;;4.53;2.13;;;16.10;60.40;;;;;;4169809;28;20041;-68
2021/11/26 12:24:26;;;;;;;11.88;3.13;;;16.00;60.80;;;;;;4147202;28;20042;-69
2021/11/26 12:26:52;;;;;;;12.77;3.72;;;16.00;61.10;;;;;;4156505;28;20068;-70
2021/11/26 12:29:14;;;;;;;9.20;2.80;;;16.00;61.50;;;;;;4171442;28;20133;-69